Scholes International At Galveston Airport Galveston US
ICAO: KGLS
IATA: GLS
Category: Medium
Scheduled Services: No

Elevation: 6 ft
TransAlt. 18000 ft.

Airport Communications:
HOUSTON APP/DEP:134.45
ASOS:119.275
CLNC DEL:135.35
CTAF:120.575
GND:118.625
MONTGOMERY CO RDO:122.15
TWR:120.575
UNICOM:123.05

KGLS Zoom In..

Runways:

(A) RW 14 length 6000 ft width 150 ft
ILS 111.70 / hdg 138

(B) RW 18 length 6001 ft width 150 ft
---- / hdg 179

(C) RW 32 length 6000 ft width 150 ft
---- / hdg 318

(D) RW 36 length 6001 ft width 150 ft
---- / hdg 359

Location; KGLS
Day. 05 / Time. 17.52 Zulu
* Altimeter: 30.03
* Temperature: 33° c. 91.4°f.
* Wind from: 170° Speed 10 kn.
Dewpoint: 25° c.
Visibility: 10 Statute Miles.
Clouds: Clear (automated report).

KGLS 051752Z 17010KT 10SM CLR 33/25 A3003 RMK AO2 SLP169 T03280250 10328 20283 50001

Going to: --> -->


Wind From 170°
Speed 10 kn.

 
 
jpsmedia worldairports.se 2020   terms of use